Time;durP1;ratioP1;P1;durP2;ratioP2;P2;SDS_P1;SDS_P2;PMS_P1;PMS_P2;Temp;Humidity;BMP_temperature;BMP_pressure;BME280_temperature;BME280_humidity;BME280_pressure;Samples;Min_cycle;Max_cycle;Signal;HPM_P1;HPM_P2
2022/03/30 00:04:26;;;;;;;65.62;32.85;;;;;;;7.40;74.64;98103.11;4296017;81;21601;-86
2022/03/30 00:10:28;;;;;;;65.32;34.63;;;;;;;7.39;74.78;98099.59;4188443;83;21082;-86
2022/03/30 00:16:30;;;;;;;67.67;34.27;;;;;;;7.27;74.55;98091.72;4156365;84;21024;-87
2022/03/30 00:22:40;;;;;;;58.38;31.97;;;;;;;7.20;75.02;98084.86;4261216;82;21693;-87
2022/03/30 00:28:41;;;;;;;60.48;34.80;;;;;;;7.12;75.02;98083.79;4261358;82;21007;-86
2022/03/30 00:34:43;;;;;;;80.85;38.28;;;;;;;7.01;75.53;98082.89;4271076;82;20998;-86
2022/03/30 00:40:45;;;;;;;79.07;38.35;;;;;;;7.00;75.40;98070.45;4268195;82;21010;-86
2022/03/30 00:46:46;;;;;;;80.50;39.58;;;;;;;6.85;76.02;98066.00;4267636;82;21109;-84
2022/03/30 00:52:54;;;;;;;69.00;36.55;;;;;;;6.90;76.24;98067.03;4262979;82;21565;-86
2022/03/30 00:58:57;;;;;;;65.45;34.95;;;;;;;6.86;76.13;98056.11;4285986;82;21049;-86
2022/03/30 01:04:58;;;;;;;83.42;39.35;;;;;;;6.85;76.36;98052.40;4270052;82;21069;-87
2022/03/30 01:11:02;;;;;;;72.67;37.75;;;;;;;6.82;76.57;98055.87;4273332;81;21036;-86
2022/03/30 01:17:05;;;;;;;76.00;38.45;;;;;;;6.76;76.75;98047.84;4292262;81;20988;-86
2022/03/30 01:23:07;;;;;;;75.10;36.53;;;;;;;6.74;76.93;98045.49;4264548;81;21092;-87
2022/03/30 01:35:33;;;;;;;77.92;39.33;;;;;;;6.87;77.32;98037.86;4276310;81;21032;-86
2022/03/30 01:41:34;;;;;;;73.67;39.40;;;;;;;6.86;77.21;98026.78;4273260;81;21020;-87
2022/03/30 01:47:36;;;;;;;74.17;41.75;;;;;;;6.88;77.58;98023.88;4264520;82;21063;-86
2022/03/30 01:53:37;;;;;;;75.40;38.88;;;;;;;6.78;77.37;98012.90;4263057;82;20992;-86
2022/03/30 01:59:49;;;;;;;70.70;37.13;;;;;;;6.68;77.58;98012.20;4267399;81;20969;-86
2022/03/30 02:05:50;;;;;;;69.20;37.45;;;;;;;6.60;77.66;98000.47;4270008;81;21012;-87
2022/03/30 02:11:52;;;;;;;67.15;37.05;;;;;;;6.55;78.03;97994.56;4301415;81;21052;-86
2022/03/30 02:17:53;;;;;;;80.28;41.92;;;;;;;6.64;78.41;97987.68;4324055;81;21984;-86
2022/03/30 02:23:54;;;;;;;73.60;39.92;;;;;;;6.65;78.20;97989.27;4295125;81;21551;-87
2022/03/30 02:29:56;;;;;;;77.25;39.55;;;;;;;6.58;78.14;97986.45;4294779;82;21494;-86
2022/03/30 02:35:57;;;;;;;70.05;36.10;;;;;;;6.55;78.92;97984.48;4281317;81;21561;-86
2022/03/30 02:41:58;;;;;;;67.55;35.50;;;;;;;6.65;79.06;97983.83;4284591;81;21633;-86
2022/03/30 02:48:18;;;;;;;71.10;37.05;;;;;;;6.65;78.87;97979.74;4290015;82;21054;-89
2022/03/30 02:54:19;;;;;;;75.32;39.60;;;;;;;6.60;78.88;97972.48;4284364;82;21049;-86
2022/03/30 03:00:22;;;;;;;89.97;44.00;;;;;;;6.50;79.14;97968.50;4292464;82;20991;-86
2022/03/30 03:06:23;;;;;;;85.80;44.63;;;;;;;6.49;79.57;97964.79;4294562;81;21014;-86
2022/03/30 03:12:24;;;;;;;84.40;44.08;;;;;;;6.54;79.43;97961.74;4284101;81;21010;-87
2022/03/30 03:18:27;;;;;;;79.07;41.42;;;;;;;6.49;79.48;97964.22;4316170;80;21592;-86
2022/03/30 03:24:28;;;;;;;74.80;39.63;;;;;;;6.52;79.68;97973.56;4299474;81;21546;-86
2022/03/30 03:30:30;;;;;;;74.50;38.88;;;;;;;6.47;79.67;97970.60;4306473;81;21034;-86
2022/03/30 03:36:33;;;;;;;64.27;34.75;;;;;;;6.48;79.94;97961.88;4299137;81;21906;-87
2022/03/30 03:42:35;;;;;;;65.28;34.43;;;;;;;6.44;79.84;97968.63;4299859;81;21379;-87
2022/03/30 03:48:40;;;;;;;67.40;34.88;;;;;;;6.56;79.83;97971.67;4286032;81;20950;-86
2022/03/30 03:54:45;;;;;;;79.80;39.98;;;;;;;6.65;79.72;97977.02;4290784;82;20996;-87
2022/03/30 04:00:46;;;;;;;64.12;35.85;;;;;;;6.52;79.65;97976.28;4292715;81;21565;-87
2022/03/30 04:06:48;;;;;;;72.25;39.23;;;;;;;6.43;79.63;97976.59;4295224;81;21069;-86
2022/03/30 04:12:52;;;;;;;76.37;41.10;;;;;;;6.29;79.40;97976.44;4308204;80;21043;-87
2022/03/30 04:18:59;;;;;;;84.62;42.08;;;;;;;6.06;79.73;97967.63;4272063;82;21127;-86
2022/03/30 04:25:00;;;;;;;61.07;31.70;;;;;;;5.89;79.96;97968.95;4297547;81;20979;-86
2022/03/30 04:31:01;;;;;;;81.02;45.38;;;;;;;5.75;80.16;97971.45;4307043;81;21037;-86
2022/03/30 04:37:03;;;;;;;79.32;43.40;;;;;;;5.54;79.98;97963.59;4287466;82;21959;-86
2022/03/30 04:43:04;;;;;;;81.32;44.05;;;;;;;5.39;80.59;97964.51;4281597;81;21052;-86
2022/03/30 04:49:06;;;;;;;78.95;42.03;;;;;;;5.34;80.82;97968.32;4288718;81;21017;-86
2022/03/30 04:55:11;;;;;;;76.82;41.20;;;;;;;5.28;81.06;97963.00;4295608;80;21018;-86
2022/03/30 05:01:13;;;;;;;82.30;41.15;;;;;;;5.28;81.37;97964.95;4293254;80;20995;-87
2022/03/30 05:07:14;;;;;;;74.90;38.30;;;;;;;5.29;81.49;97967.86;4285089;82;21605;-86
2022/03/30 05:13:15;;;;;;;63.00;37.38;;;;;;;5.26;81.50;97965.88;4317645;80;21055;-86
2022/03/30 05:19:17;;;;;;;73.70;41.02;;;;;;;5.26;81.81;97965.88;4291205;81;21038;-86
2022/03/30 05:25:23;;;;;;;79.77;42.20;;;;;;;5.28;81.98;97971.73;4315767;82;20950;-86
2022/03/30 05:31:22;;;;;;;85.92;42.50;;;;;;;5.27;82.48;97966.87;4318399;82;20974;-87
2022/03/30 05:37:30;;;;;;;75.52;38.23;;;;;;;5.31;82.48;97974.48;4290849;82;21023;-86
2022/03/30 05:43:31;;;;;;;83.03;47.20;;;;;;;5.33;82.74;97975.47;4300100;82;21019;-86
2022/03/30 05:49:37;;;;;;;90.80;47.67;;;;;;;5.44;83.12;97971.78;4290975;81;21051;-86
2022/03/30 05:55:38;;;;;;;74.45;41.48;;;;;;;5.69;83.38;97984.34;4282193;80;21097;-86
2022/03/30 06:01:40;;;;;;;77.32;41.92;;;;;;;5.92;83.50;97979.67;4295205;82;21018;-86
2022/03/30 06:07:41;;;;;;;62.43;36.15;;;;;;;6.07;83.44;97971.89;4295626;81;21042;-86
2022/03/30 06:13:47;;;;;;;73.83;41.48;;;;;;;6.22;83.41;97968.98;4309670;81;21073;-86
2022/03/30 06:19:53;;;;;;;64.57;32.00;;;;;;;6.35;83.37;97964.86;4290768;81;22249;-87
2022/03/30 06:25:54;;;;;;;89.47;44.53;;;;;;;6.59;83.13;97962.77;4301288;80;21137;-86
2022/03/30 06:31:55;;;;;;;71.00;39.65;;;;;;;6.87;83.03;97963.84;4289665;81;21521;-86
2022/03/30 06:37:56;;;;;;;63.58;34.25;;;;;;;7.19;82.63;97962.15;4293394;81;22057;-86
2022/03/30 06:43:58;;;;;;;54.00;30.23;;;;;;;7.53;82.05;97963.56;4291660;81;21517;-86
2022/03/30 06:50:13;;;;;;;50.65;26.02;;;;;;;7.77;80.19;97967.02;4301879;81;21054;-86
2022/03/30 06:56:33;;;;;;;39.83;20.95;;;;;;;7.72;79.52;97960.57;4276321;82;21025;-86
2022/03/30 07:02:34;;;;;;;38.20;19.85;;;;;;;7.84;78.38;97963.56;4326502;82;21068;-86
2022/03/30 07:14:55;;;;;;;35.70;19.65;;;;;;;8.08;74.79;97967.58;4283648;81;21461;-86
2022/03/30 07:20:59;;;;;;;33.60;19.45;;;;;;;8.33;75.84;97976.06;4281071;81;21004;-86
2022/03/30 07:27:00;;;;;;;34.58;20.82;;;;;;;8.51;74.65;97972.03;4274019;81;21100;-86
2022/03/30 07:33:02;;;;;;;42.08;20.92;;;;;;;8.79;74.32;97960.61;4283013;81;21024;-86
2022/03/30 07:39:11;;;;;;;34.10;19.98;;;;;;;8.98;72.69;97967.65;4267812;81;22011;-86
2022/03/30 07:45:15;;;;;;;34.23;19.75;;;;;;;9.15;71.73;97963.58;4292953;81;21013;-86
2022/03/30 07:51:22;;;;;;;29.67;17.87;;;;;;;9.57;71.40;97969.58;4293354;81;20996;-85
2022/03/30 07:57:32;;;;;;;50.33;21.27;;;;;;;9.94;68.51;97961.72;4267614;81;20994;-87
2022/03/30 08:03:34;;;;;;;39.53;20.60;;;;;;;10.28;69.32;97951.85;4301336;81;21024;-87
2022/03/30 08:09:44;;;;;;;33.53;19.77;;;;;;;10.70;67.74;97942.63;4280071;81;21023;-86
2022/03/30 08:15:46;;;;;;;28.67;18.77;;;;;;;11.01;67.02;97946.52;4292902;80;21358;-87
2022/03/30 08:28:07;;;;;;;38.42;21.85;;;;;;;11.66;63.63;97951.09;4295644;81;21089;-86
2022/03/30 08:34:08;;;;;;;35.20;21.05;;;;;;;11.66;60.60;97942.08;4188955;84;21476;-88
2022/03/30 08:40:10;;;;;;;40.48;22.25;;;;;;;11.53;61.73;97930.03;4190130;84;21541;-86
2022/03/30 08:46:11;;;;;;;35.88;22.22;;;;;;;12.23;62.28;97933.42;4151124;84;21158;-87
2022/03/30 08:52:13;;;;;;;32.58;20.17;;;;;;;12.35;59.35;97930.91;4290544;81;21064;-87
2022/03/30 08:58:16;;;;;;;36.03;22.05;;;;;;;12.41;58.96;97926.52;4295484;80;20994;-87
2022/03/30 09:04:18;;;;;;;40.95;22.70;;;;;;;12.78;59.14;97925.59;4186271;84;21080;-87
2022/03/30 09:10:25;;;;;;;30.02;19.82;;;;;;;12.89;56.18;97926.83;4137806;84;22077;-86
2022/03/30 09:16:40;;;;;;;36.63;22.37;;;;;;;13.06;56.56;97929.93;4160230;84;21105;-87
2022/03/30 09:22:44;;;;;;;29.92;18.98;;;;;;;13.51;54.94;97924.27;4189455;84;21053;-87
2022/03/30 09:28:46;;;;;;;34.58;21.57;;;;;;;14.09;55.89;97918.06;4102706;85;21710;-87
2022/03/30 09:34:54;;;;;;;28.65;19.73;;;;;;;14.75;53.25;97911.73;4277090;81;21001;-87
2022/03/30 09:41:03;;;;;;;34.53;21.12;;;;;;;15.01;53.84;97903.86;4302382;80;21094;-87
2022/03/30 09:47:07;;;;;;;33.42;20.20;;;;;;;15.09;53.90;97896.98;4299056;81;21522;-87
2022/03/30 09:53:14;;;;;;;29.75;20.90;;;;;;;15.41;52.98;97882.44;4301469;81;20954;-86
2022/03/30 09:59:17;;;;;;;28.43;20.20;;;;;;;15.84;47.20;97872.39;4301924;81;20976;-87
2022/03/30 10:05:21;;;;;;;39.63;22.87;;;;;;;15.92;50.08;97864.88;4314332;81;21054;-87
2022/03/30 10:11:27;;;;;;;42.60;23.87;;;;;;;16.30;47.75;97854.67;4304809;81;21888;-87
2022/03/30 10:17:29;;;;;;;31.05;21.33;;;;;;;16.52;49.14;97851.47;4279544;80;21963;-87
2022/03/30 10:23:53;;;;;;;32.60;21.62;;;;;;;16.91;48.47;97842.73;4264871;82;21085;-88
2022/03/30 10:30:08;;;;;;;28.32;19.23;;;;;;;16.93;45.37;97844.45;4252673;82;21081;-86
2022/03/30 10:36:32;;;;;;;27.13;19.45;;;;;;;17.31;45.13;97829.77;4281279;81;21031;-88
2022/03/30 10:42:54;;;;;;;29.90;21.97;;;;;;;17.87;45.90;97822.29;4255783;82;21641;-86
2022/03/30 10:48:59;;;;;;;28.12;20.02;;;;;;;18.24;42.36;97815.74;4216928;82;21083;-86
2022/03/30 10:55:19;;;;;;;26.77;18.90;;;;;;;17.66;44.33;97810.59;4265677;81;21577;-86
2022/03/30 11:01:25;;;;;;;27.93;20.37;;;;;;;17.81;43.70;97803.30;4244013;82;21026;-86
2022/03/30 11:07:30;;;;;;;32.20;21.53;;;;;;;18.28;43.23;97794.98;4249079;82;21146;-85
2022/03/30 11:13:31;;;;;;;27.60;18.27;;;;;;;18.28;41.48;97793.60;4267149;81;21098;-86
2022/03/30 11:19:57;;;;;;;30.43;19.82;;;;;;;17.65;41.44;97793.20;4297285;82;21085;-85
2022/03/30 11:25:59;;;;;;;27.20;19.37;;;;;;;16.93;41.64;97787.00;4304195;80;21037;-84
2022/03/30 11:32:05;;;;;;;27.42;19.07;;;;;;;16.61;38.57;97779.77;4302434;80;21049;-85
2022/03/30 11:38:28;;;;;;;28.25;18.20;;;;;;;15.84;41.31;97769.70;4295411;82;21033;-86
2022/03/30 11:50:56;;;;;;;26.02;16.65;;;;;;;15.08;40.18;97760.98;4294885;81;21081;-86
2022/03/30 11:56:58;;;;;;;28.30;18.77;;;;;;;14.86;41.20;97757.98;4303463;80;20981;-86
2022/03/30 12:03:02;;;;;;;25.65;17.25;;;;;;;15.01;41.33;97755.05;4220176;83;21623;-86
2022/03/30 12:09:03;;;;;;;28.38;18.60;;;;;;;14.63;41.06;97744.41;4219831;83;21027;-85
2022/03/30 12:15:18;;;;;;;29.37;18.75;;;;;;;14.83;41.10;97734.05;4129707;85;21023;-85
2022/03/30 12:21:27;;;;;;;30.55;18.23;;;;;;;14.82;41.09;97722.09;4300222;81;21042;-86
2022/03/30 12:27:30;;;;;;;22.90;16.50;;;;;;;14.91;40.91;97724.40;4309396;81;20970;-86
2022/03/30 12:33:32;;;;;;;29.45;17.25;;;;;;;15.00;40.85;97718.28;4296324;81;21092;-86
2022/03/30 12:39:40;;;;;;;32.93;16.37;;;;;;;14.92;40.98;97712.78;4301089;80;32830;-86
2022/03/30 12:45:54;;;;;;;24.72;16.12;;;;;;;14.95;41.12;97702.27;4272707;82;20988;-86
2022/03/30 12:52:14;;;;;;;22.80;15.53;;;;;;;14.92;41.20;97694.28;4295428;82;21027;-85
2022/03/30 12:58:22;;;;;;;27.35;17.55;;;;;;;14.87;41.05;97683.78;4322289;81;21078;-86
2022/03/30 13:04:28;;;;;;;24.32;16.32;;;;;;;14.70;41.23;97682.27;4363009;80;21538;-84
2022/03/30 13:10:47;;;;;;;27.20;17.00;;;;;;;14.65;41.41;97672.36;4285469;81;21042;-85
2022/03/30 13:16:59;;;;;;;23.27;15.78;;;;;;;14.36;40.06;97668.80;4265629;80;37360;-86
2022/03/30 13:23:16;;;;;;;26.05;15.78;;;;;;;14.10;41.20;97662.31;4225856;83;21069;-85
2022/03/30 13:29:14;;;;;;;27.07;16.00;;;;;;;14.19;41.30;97648.72;4369130;80;21092;-86
2022/03/30 13:35:21;;;;;;;23.83;16.10;;;;;;;14.44;41.45;97644.77;4368735;80;20990;-86
2022/03/30 13:41:23;;;;;;;23.25;14.93;;;;;;;14.60;41.39;97631.58;4371880;79;21033;-86
2022/03/30 13:47:25;;;;;;;24.25;16.23;;;;;;;14.57;41.36;97639.33;4375682;80;21033;-85
2022/03/30 13:53:31;;;;;;;29.15;16.82;;;;;;;14.31;41.46;97626.05;4359766;80;21013;-86
2022/03/30 13:59:32;;;;;;;24.37;16.62;;;;;;;14.33;41.62;97618.73;4381709;80;21025;-86
2022/03/30 14:05:34;;;;;;;22.58;15.13;;;;;;;14.36;41.58;97613.73;4368668;79;21831;-86
2022/03/30 14:11:35;;;;;;;33.00;18.90;;;;;;;14.25;41.56;97609.86;4376150;79;21022;-84
2022/03/30 14:17:39;;;;;;;27.35;16.93;;;;;;;13.94;41.75;97602.55;4390443;79;21034;-86
2022/03/30 14:23:41;;;;;;;24.85;15.35;;;;;;;13.80;41.94;97596.02;4357850;80;21518;-85
2022/03/30 14:29:42;;;;;;;30.95;18.07;;;;;;;13.81;42.04;97589.30;4371868;80;21487;-85
2022/03/30 14:35:44;;;;;;;30.80;18.65;;;;;;;13.65;42.10;97579.69;4358657;80;21042;-86
2022/03/30 14:41:46;;;;;;;33.58;18.52;;;;;;;13.53;42.28;97586.47;4361907;80;21163;-86
2022/03/30 14:47:48;;;;;;;36.58;21.12;;;;;;;13.28;42.46;97580.13;4361968;79;20999;-86
2022/03/30 14:53:49;;;;;;;38.17;22.07;;;;;;;13.12;42.71;97580.11;4359648;80;21503;-85
2022/03/30 14:59:51;;;;;;;35.63;19.95;;;;;;;13.02;42.97;97566.58;4356482;80;20982;-86
2022/03/30 15:05:54;;;;;;;33.48;19.30;;;;;;;12.89;43.19;97556.81;4350177;80;21042;-86
2022/03/30 15:11:56;;;;;;;34.70;21.00;;;;;;;12.73;43.45;97551.28;4358538;80;20988;-86
2022/03/30 15:17:57;;;;;;;39.25;20.85;;;;;;;12.65;43.67;97549.88;4347375;80;21534;-85
2022/03/30 15:23:59;;;;;;;41.40;23.45;;;;;;;12.51;44.02;97544.05;4376284;80;21934;-86
2022/03/30 15:30:01;;;;;;;33.95;18.85;;;;;;;12.35;44.43;97543.20;4280582;82;21058;-87
2022/03/30 15:36:03;;;;;;;36.88;23.27;;;;;;;12.24;45.08;97543.41;4280370;81;21174;-86
2022/03/30 15:42:04;;;;;;;38.28;22.75;;;;;;;12.01;48.35;97543.42;4216689;83;21894;-86
2022/03/30 15:48:07;;;;;;;38.13;22.70;;;;;;;11.70;48.60;97535.14;4300292;81;21014;-86
2022/03/30 15:54:10;;;;;;;38.45;24.00;;;;;;;11.44;49.63;97539.27;4232695;82;21022;-86
2022/03/30 16:00:12;;;;;;;38.85;23.38;;;;;;;11.19;50.33;97540.22;4281292;82;21142;-85
2022/03/30 16:06:13;;;;;;;40.65;22.15;;;;;;;10.93;51.10;97531.58;4284859;81;21054;-87
2022/03/30 16:12:21;;;;;;;44.45;23.65;;;;;;;10.72;52.21;97529.14;4356262;80;22235;-86
2022/03/30 16:18:24;;;;;;;40.48;24.47;;;;;;;10.55;53.50;97532.88;4338517;80;21047;-86
2022/03/30 16:24:26;;;;;;;41.68;26.52;;;;;;;10.40;54.32;97530.69;4439991;79;22093;-86
2022/03/30 16:30:27;;;;;;;37.95;20.68;;;;;;;10.31;55.64;97530.41;4442887;79;21027;-87
2022/03/30 16:36:29;;;;;;;35.55;20.80;;;;;;;10.24;56.44;97536.72;4436769;79;21109;-86
2022/03/30 16:42:33;;;;;;;43.98;25.15;;;;;;;10.23;57.17;97534.40;4312360;78;9999538;-86
2022/03/30 16:48:34;;;;;;;49.77;28.75;;;;;;;10.06;57.25;97524.39;4434350;79;20987;-87
2022/03/30 16:54:36;;;;;;;54.73;31.33;;;;;;;9.70;57.96;97521.23;4435537;78;20986;-86
2022/03/30 17:00:39;;;;;;;44.60;25.37;;;;;;;9.40;58.65;97511.53;4432240;79;20982;-87
2022/03/30 17:06:42;;;;;;;183.60;75.97;;;;;;;9.23;60.17;97518.69;4432458;79;21010;-87
2022/03/30 17:12:45;;;;;;;57.62;29.50;;;;;;;9.20;60.80;97520.86;4489864;79;20919;-87
2022/03/30 17:18:46;;;;;;;52.90;29.52;;;;;;;9.05;61.23;97509.83;4394540;78;20996;-88
2022/03/30 17:24:55;;;;;;;53.98;30.02;;;;;;;8.89;63.48;97502.74;4362796;80;21016;-88
2022/03/30 17:31:06;;;;;;;44.03;24.72;;;;;;;8.79;63.71;97494.02;4292914;82;21015;-87
2022/03/30 17:37:11;;;;;;;51.33;28.75;;;;;;;8.89;65.45;97490.46;4297579;81;20976;-87
2022/03/30 17:43:14;;;;;;;41.13;23.90;;;;;;;8.90;66.63;97498.83;4164849;81;9999776;-89
2022/03/30 17:55:42;;;;;;;47.88;28.27;;;;;;;8.66;69.45;97492.91;4338074;81;21047;-88
2022/03/30 18:01:52;;;;;;;57.58;31.62;;;;;;;8.53;69.09;97491.83;4363005;80;20981;-87
2022/03/30 18:07:53;;;;;;;62.08;30.77;;;;;;;8.52;69.27;97500.41;4283163;81;21651;-88
2022/03/30 18:13:55;;;;;;;56.58;30.05;;;;;;;8.44;69.31;97489.34;4331849;81;21000;-88
2022/03/30 18:19:57;;;;;;;75.45;37.10;;;;;;;8.44;69.99;97496.16;4360957;80;21062;-88
2022/03/30 18:25:58;;;;;;;63.87;36.48;;;;;;;8.46;70.49;97491.06;4398173;79;21031;-87
2022/03/30 18:32:00;;;;;;;66.72;37.20;;;;;;;8.48;71.19;97486.00;4397577;79;20940;-87
2022/03/30 18:38:04;;;;;;;62.23;35.75;;;;;;;8.51;71.80;97486.56;4397777;79;21043;-86
2022/03/30 18:44:05;;;;;;;59.95;34.45;;;;;;;8.44;72.44;97475.70;4395621;79;21011;-86
2022/03/30 18:50:12;;;;;;;67.25;38.20;;;;;;;8.41;73.01;97467.72;4398452;80;21562;-86
2022/03/30 18:56:21;;;;;;;63.73;36.53;;;;;;;8.46;73.75;97467.30;4494812;78;21407;-85
2022/03/30 19:02:30;;;;;;;82.67;44.45;;;;;;;8.41;74.07;97457.41;4496989;78;21072;-87
2022/03/30 19:08:35;;;;;;;78.67;44.55;;;;;;;8.38;74.70;97464.42;4495555;78;21618;-87
2022/03/30 19:14:37;;;;;;;80.40;45.38;;;;;;;8.34;75.13;97453.34;4475052;78;21003;-88
2022/03/30 19:20:43;;;;;;;82.10;46.00;;;;;;;8.29;75.69;97454.53;4479081;78;21019;-87
2022/03/30 19:26:45;;;;;;;89.30;49.03;;;;;;;8.29;76.11;97466.80;4474957;79;20972;-87
2022/03/30 19:32:46;;;;;;;92.17;49.87;;;;;;;8.27;76.43;97458.23;4473013;78;21012;-86
2022/03/30 19:38:49;;;;;;;88.50;46.10;;;;;;;8.22;76.67;97449.10;4470251;78;21003;-86
2022/03/30 19:44:50;;;;;;;82.08;44.10;;;;;;;8.17;77.69;97443.27;4472039;78;21016;-86
2022/03/30 19:50:52;;;;;;;81.75;42.88;;;;;;;8.05;77.44;97438.27;4471534;78;21547;-87
2022/03/30 19:57:04;;;;;;;75.55;40.38;;;;;;;7.97;78.03;97434.19;4472183;78;21574;-87
2022/03/30 20:03:09;;;;;;;73.70;39.38;;;;;;;7.93;78.18;97432.08;4475579;78;20953;-86
2022/03/30 20:09:15;;;;;;;70.15;38.50;;;;;;;7.90;78.72;97419.82;4478175;78;21016;-86
2022/03/30 20:15:24;;;;;;;76.47;43.45;;;;;;;7.89;79.12;97412.83;4477947;78;20967;-86
2022/03/30 20:21:25;;;;;;;78.35;43.48;;;;;;;7.93;79.47;97417.09;4477591;78;21058;-86
2022/03/30 20:27:27;;;;;;;71.67;39.20;;;;;;;7.92;79.92;97418.23;4489171;78;20946;-87
2022/03/30 20:33:28;;;;;;;67.87;38.83;;;;;;;7.96;80.25;97421.75;4485782;78;21069;-86
2022/03/30 20:39:29;;;;;;;74.17;39.25;;;;;;;7.90;80.68;97406.98;4485396;78;20998;-87
2022/03/30 20:45:30;;;;;;;71.25;37.48;;;;;;;7.83;81.03;97416.53;4491061;77;21073;-87
2022/03/30 20:51:32;;;;;;;83.35;40.52;;;;;;;7.78;81.36;97406.64;4475931;78;21551;-87
2022/03/30 20:57:36;;;;;;;74.90;37.28;;;;;;;7.73;82.65;97399.65;4468735;78;22318;-86
2022/03/30 21:03:38;;;;;;;69.87;39.42;;;;;;;7.68;82.76;97395.97;4495260;78;20986;-86
2022/03/30 21:09:39;;;;;;;68.65;36.80;;;;;;;7.63;83.31;97377.88;4438602;79;21448;-87
2022/03/30 21:15:42;;;;;;;63.78;37.23;;;;;;;7.57;82.97;97374.01;4434172;79;21968;-86
2022/03/30 21:21:50;;;;;;;64.07;37.15;;;;;;;7.63;83.23;97390.12;4375485;79;20953;-87
2022/03/30 21:27:52;;;;;;;64.65;38.02;;;;;;;7.66;83.24;97387.41;4365301;80;20968;-87
2022/03/30 21:33:53;;;;;;;66.35;36.20;;;;;;;7.66;83.51;97384.68;4363451;80;21062;-87
2022/03/30 21:39:54;;;;;;;64.17;35.52;;;;;;;7.62;83.66;97385.29;4363295;80;21034;-86
2022/03/30 21:45:56;;;;;;;60.43;36.00;;;;;;;7.58;83.97;97381.03;4363983;80;21025;-87
2022/03/30 21:51:58;;;;;;;62.35;35.50;;;;;;;7.59;84.30;97379.84;4339378;81;21889;-86
2022/03/30 21:58:00;;;;;;;66.60;36.93;;;;;;;7.56;84.33;97368.38;4474861;79;21429;-86
2022/03/30 22:04:03;;;;;;;72.15;40.25;;;;;;;7.51;84.99;97359.25;4477827;79;21023;-86
2022/03/30 22:10:05;;;;;;;77.62;40.00;;;;;;;7.43;85.37;97353.05;4475791;78;21066;-86
2022/03/30 22:16:06;;;;;;;78.45;40.20;;;;;;;7.37;85.25;97349.76;4474503;78;21924;-87
2022/03/30 22:22:13;;;;;;;72.90;39.38;;;;;;;7.32;85.41;97348.80;4487098;78;22142;-87
2022/03/30 22:28:14;;;;;;;61.73;34.10;;;;;;;7.28;85.70;97337.16;4453323;79;21056;-86
2022/03/30 22:40:39;;;;;;;86.57;43.05;;;;;;;7.22;86.25;97319.07;4432393;79;20994;-87
2022/03/30 22:46:46;;;;;;;79.62;42.03;;;;;;;7.20;86.70;97324.73;4443535;79;20986;-87
2022/03/30 22:52:48;;;;;;;80.97;43.87;;;;;;;7.16;87.62;97326.66;4442483;79;20959;-87
2022/03/30 22:58:49;;;;;;;79.53;41.45;;;;;;;7.13;87.54;97327.45;4448260;78;20994;-86
2022/03/30 23:04:50;;;;;;;74.75;39.88;;;;;;;7.13;88.69;97323.37;4440231;78;21023;-87
2022/03/30 23:10:53;;;;;;;78.72;39.50;;;;;;;7.06;88.38;97327.47;4434403;79;21025;-87
2022/03/30 23:16:54;;;;;;;79.07;39.60;;;;;;;7.04;89.54;97331.95;4451742;78;21049;-87
2022/03/30 23:22:56;;;;;;;78.52;37.07;;;;;;;6.96;89.38;97330.41;4298372;78;10000247;-87
2022/03/30 23:28:58;;;;;;;77.67;38.97;;;;;;;6.93;89.16;97323.60;4423994;79;20995;-86
2022/03/30 23:35:00;;;;;;;79.00;41.63;;;;;;;6.88;90.29;97331.58;4343392;80;21077;-88
2022/03/30 23:41:01;;;;;;;85.47;43.52;;;;;;;6.82;90.06;97332.35;4269297;82;21059;-87
2022/03/30 23:47:03;;;;;;;83.05;43.02;;;;;;;6.79;90.66;97336.64;4327192;80;21056;-87
2022/03/30 23:53:05;;;;;;;68.02;37.98;;;;;;;6.74;90.11;97328.08;4447256;79;21284;-87
2022/03/30 23:59:06;;;;;;;60.67;33.00;;;;;;;6.73;91.07;97340.13;4415443;79;21054;-87
